createdAt,value
2017-08-23T00:00:14.027Z,11.90
2017-08-23T00:02:41.651Z,11.80
2017-08-23T00:05:09.315Z,11.80
2017-08-23T00:07:37.003Z,11.80
2017-08-23T00:10:04.712Z,11.80
2017-08-23T00:12:32.341Z,11.70
2017-08-23T00:15:00.004Z,11.70
2017-08-23T00:17:27.621Z,11.70
2017-08-23T00:19:55.247Z,11.70
2017-08-23T00:22:22.932Z,11.70
2017-08-23T00:24:50.546Z,11.70
2017-08-23T00:27:18.178Z,11.70
2017-08-23T00:29:45.857Z,11.70
2017-08-23T00:32:13.475Z,11.60
2017-08-23T00:34:41.108Z,11.60
2017-08-23T00:37:08.794Z,11.60
2017-08-23T00:39:36.416Z,11.50
2017-08-23T00:42:04.040Z,11.50
2017-08-23T00:44:31.796Z,11.40
2017-08-23T00:46:59.446Z,11.50
2017-08-23T00:49:27.086Z,11.40
2017-08-23T00:51:54.763Z,11.40
2017-08-23T00:54:22.409Z,11.40
2017-08-23T00:56:50.038Z,11.30
2017-08-23T00:59:17.767Z,11.40
2017-08-23T01:01:45.440Z,11.40
2017-08-23T01:04:13.067Z,11.40
2017-08-23T01:06:40.735Z,11.40
2017-08-23T01:09:08.356Z,11.30
2017-08-23T01:11:35.963Z,11.30
2017-08-23T01:14:03.644Z,11.30
2017-08-23T01:16:31.252Z,11.20
2017-08-23T01:18:58.873Z,11.10
2017-08-23T01:21:26.552Z,11.10
2017-08-23T01:23:54.163Z,11.00
2017-08-23T01:26:21.783Z,11.10
2017-08-23T01:28:49.528Z,11.20
2017-08-23T01:31:17.171Z,11.20
2017-08-23T01:33:44.795Z,11.10
2017-08-23T01:36:12.483Z,11.10
2017-08-23T01:38:40.091Z,11.00
2017-08-23T01:41:07.708Z,11.00
2017-08-23T01:43:35.384Z,10.90
2017-08-23T01:46:03.000Z,10.90
2017-08-23T01:48:30.631Z,10.90
2017-08-23T01:50:58.300Z,10.80
2017-08-23T01:53:25.931Z,10.70
2017-08-23T01:55:53.649Z,10.80
2017-08-23T01:58:22.096Z,10.70
2017-08-23T02:00:50.206Z,10.70
2017-08-23T02:03:17.856Z,10.70
2017-08-23T02:05:45.523Z,10.70
2017-08-23T02:08:13.145Z,10.70
2017-08-23T02:10:40.759Z,10.60
2017-08-23T02:13:08.428Z,10.60
2017-08-23T02:15:36.047Z,10.70
2017-08-23T02:18:03.684Z,10.60
2017-08-23T02:20:31.347Z,10.60
2017-08-23T02:22:58.963Z,10.70
2017-08-23T02:25:26.601Z,10.70
2017-08-23T02:27:54.277Z,10.70
2017-08-23T02:30:21.912Z,10.70
2017-08-23T02:32:49.551Z,10.60
2017-08-23T02:35:17.237Z,10.60
2017-08-23T02:37:44.859Z,10.60
2017-08-23T02:40:12.468Z,10.60
2017-08-23T02:42:40.159Z,10.60
2017-08-23T02:45:07.802Z,10.60
2017-08-23T02:47:35.398Z,10.50
2017-08-23T02:50:03.076Z,10.50
2017-08-23T02:52:30.685Z,10.50
2017-08-23T02:54:58.295Z,10.50
2017-08-23T02:57:25.991Z,10.50
2017-08-23T02:59:53.614Z,10.50
2017-08-23T03:02:21.240Z,10.50
2017-08-23T03:04:48.924Z,10.50
2017-08-23T03:07:16.539Z,10.50
2017-08-23T03:09:44.178Z,10.50
2017-08-23T03:12:12.536Z,10.50
2017-08-23T03:14:40.210Z,10.50
2017-08-23T03:17:08.582Z,10.50
2017-08-23T03:19:36.255Z,10.50
2017-08-23T03:22:03.876Z,10.50
2017-08-23T03:24:31.545Z,10.60
2017-08-23T03:26:59.207Z,10.60
2017-08-23T03:29:26.835Z,10.70
2017-08-23T03:31:54.459Z,10.90
2017-08-23T03:34:22.123Z,10.90
2017-08-23T03:36:49.736Z,10.80
2017-08-23T03:39:17.384Z,10.70
2017-08-23T03:41:45.046Z,10.70
2017-08-23T03:44:12.661Z,10.60
2017-08-23T03:46:40.282Z,10.60
2017-08-23T03:49:07.955Z,10.60
2017-08-23T03:51:35.636Z,10.60
2017-08-23T03:54:03.264Z,10.60
2017-08-23T03:56:31.054Z,10.60
2017-08-23T03:58:58.693Z,10.60
2017-08-23T04:01:26.303Z,10.50
2017-08-23T04:03:53.968Z,10.50
2017-08-23T04:06:21.579Z,10.50
2017-08-23T04:08:49.182Z,10.50
2017-08-23T04:11:16.875Z,10.40
2017-08-23T04:13:44.496Z,10.40
2017-08-23T04:16:12.159Z,10.50
2017-08-23T04:18:39.860Z,10.50
2017-08-23T04:21:07.532Z,10.50
2017-08-23T04:23:35.147Z,10.50
2017-08-23T04:26:02.808Z,10.40
2017-08-23T04:28:30.430Z,10.40
2017-08-23T04:30:58.088Z,10.40
2017-08-23T04:33:25.815Z,10.40
2017-08-23T04:35:53.445Z,10.40
2017-08-23T04:38:21.069Z,10.40
2017-08-23T04:40:48.768Z,10.40
2017-08-23T04:43:16.400Z,10.50
2017-08-23T04:45:44.012Z,10.50
2017-08-23T04:48:11.697Z,10.50
2017-08-23T04:50:39.335Z,10.60
2017-08-23T04:53:06.939Z,10.70
2017-08-23T04:55:34.603Z,10.70
2017-08-23T04:58:02.225Z,10.80
2017-08-23T05:00:29.824Z,10.90
2017-08-23T05:02:57.491Z,11.00
2017-08-23T05:05:25.086Z,11.10
2017-08-23T05:07:52.702Z,11.20
2017-08-23T05:10:20.440Z,11.30
2017-08-23T05:12:48.039Z,11.40
2017-08-23T05:15:15.648Z,11.50
2017-08-23T05:17:43.311Z,11.60
2017-08-23T05:20:10.927Z,11.70
2017-08-23T05:22:38.532Z,11.80
2017-08-23T05:25:06.196Z,11.90
2017-08-23T05:27:33.825Z,12.00
2017-08-23T05:30:01.463Z,12.10
2017-08-23T05:32:29.141Z,12.20
2017-08-23T05:34:56.758Z,12.30
2017-08-23T05:37:24.403Z,12.50
2017-08-23T05:39:52.063Z,12.60
2017-08-23T05:42:19.699Z,12.70
2017-08-23T05:44:47.360Z,12.70
2017-08-23T05:47:15.027Z,12.70
2017-08-23T05:49:42.653Z,12.80
2017-08-23T05:52:10.277Z,12.80
2017-08-23T05:54:38.041Z,12.90
2017-08-23T05:57:05.659Z,12.80
2017-08-23T05:59:33.272Z,12.90
2017-08-23T06:02:01.054Z,12.90
2017-08-23T06:04:28.679Z,12.90
2017-08-23T06:06:56.307Z,13.10
2017-08-23T06:09:23.984Z,13.20
2017-08-23T06:11:51.601Z,13.30
2017-08-23T06:14:19.221Z,13.40
2017-08-23T06:16:46.986Z,13.60
2017-08-23T06:19:14.619Z,13.70
2017-08-23T06:21:42.293Z,13.80
2017-08-23T06:24:09.974Z,14.00
2017-08-23T06:26:37.602Z,14.10
2017-08-23T06:29:05.215Z,14.20
2017-08-23T06:31:32.884Z,14.30
2017-08-23T06:34:00.514Z,14.40
2017-08-23T06:36:28.181Z,14.50
2017-08-23T06:38:55.988Z,14.50
2017-08-23T06:41:23.587Z,14.60
2017-08-23T06:43:51.201Z,14.70
2017-08-23T06:46:18.870Z,14.70
2017-08-23T06:48:46.486Z,14.70
2017-08-23T06:51:14.106Z,14.80
2017-08-23T06:53:41.802Z,14.80
2017-08-23T06:56:09.412Z,15.00
2017-08-23T06:58:37.028Z,15.10
2017-08-23T07:01:04.791Z,15.10
2017-08-23T07:03:32.418Z,15.20
2017-08-23T07:06:00.044Z,15.40
2017-08-23T07:08:27.718Z,15.60
2017-08-23T07:10:55.328Z,15.90
2017-08-23T07:13:22.932Z,16.00
2017-08-23T07:15:50.617Z,16.10
2017-08-23T07:18:18.239Z,16.40
2017-08-23T07:20:46.248Z,16.80
2017-08-23T07:23:14.010Z,17.10
2017-08-23T07:25:41.629Z,17.30
2017-08-23T07:28:09.233Z,17.60
2017-08-23T07:30:37.663Z,17.90
2017-08-23T07:33:05.302Z,17.80
2017-08-23T07:35:32.918Z,18.00
2017-08-23T07:38:00.711Z,18.00
2017-08-23T07:40:28.352Z,18.00
2017-08-23T07:42:55.974Z,18.10
2017-08-23T07:45:23.649Z,18.00
2017-08-23T07:47:51.271Z,18.00
2017-08-23T07:50:18.893Z,18.10
2017-08-23T07:52:46.592Z,18.10
2017-08-23T07:55:14.215Z,18.40
2017-08-23T07:57:41.839Z,18.90
2017-08-23T08:00:09.519Z,19.30
2017-08-23T08:02:37.191Z,19.30
2017-08-23T08:05:04.804Z,19.40
2017-08-23T08:07:32.477Z,19.60
2017-08-23T08:10:00.587Z,19.80
2017-08-23T08:12:28.250Z,19.80
2017-08-23T08:14:55.931Z,20.10
2017-08-23T08:17:23.559Z,20.00
2017-08-23T08:19:51.871Z,19.90
2017-08-23T08:22:21.704Z,19.90
2017-08-23T08:24:49.348Z,19.80
2017-08-23T08:27:16.970Z,20.00
2017-08-23T08:29:44.623Z,20.20
2017-08-23T08:32:12.232Z,20.50
2017-08-23T08:34:39.851Z,20.80
2017-08-23T08:37:07.512Z,20.80
2017-08-23T08:39:35.123Z,21.00
2017-08-23T08:42:02.753Z,21.30
2017-08-23T08:44:30.455Z,21.30
2017-08-23T08:46:58.115Z,21.40
2017-08-23T08:49:25.728Z,21.50
2017-08-23T08:51:53.388Z,21.60
2017-08-23T08:54:21.004Z,21.80
2017-08-23T08:56:48.639Z,21.90
2017-08-23T08:59:16.296Z,21.90
2017-08-23T09:01:43.907Z,22.00
2017-08-23T09:04:11.517Z,22.10
2017-08-23T09:06:39.192Z,22.20
2017-08-23T09:09:06.811Z,22.30
2017-08-23T09:11:34.422Z,22.20
2017-08-23T09:14:02.103Z,22.50
2017-08-23T09:16:29.741Z,22.60
2017-08-23T09:18:57.377Z,22.90
2017-08-23T09:21:25.056Z,22.80
2017-08-23T09:23:52.661Z,22.90
2017-08-23T09:26:20.336Z,23.00
2017-08-23T09:28:47.998Z,23.30
2017-08-23T09:31:15.645Z,23.50
2017-08-23T09:33:43.277Z,23.70
2017-08-23T09:36:11.056Z,23.80
2017-08-23T09:38:39.445Z,23.90
2017-08-23T09:41:07.059Z,23.90
2017-08-23T09:43:34.727Z,24.00
2017-08-23T09:46:02.344Z,23.80
2017-08-23T09:48:29.967Z,23.20
2017-08-23T09:50:57.671Z,23.20
2017-08-23T09:53:25.304Z,23.30
2017-08-23T09:55:52.915Z,23.60
2017-08-23T09:58:20.564Z,23.90
2017-08-23T10:00:48.217Z,24.00
2017-08-23T10:03:15.826Z,24.10
2017-08-23T10:05:43.487Z,24.40
2017-08-23T10:08:11.100Z,24.50
2017-08-23T10:10:38.711Z,24.50
2017-08-23T10:13:06.390Z,24.40
2017-08-23T10:15:34.036Z,24.60
2017-08-23T10:18:01.646Z,24.50
2017-08-23T10:20:29.326Z,24.60
2017-08-23T10:22:56.960Z,24.60
2017-08-23T10:25:24.585Z,24.70
2017-08-23T10:27:52.315Z,24.60
2017-08-23T10:30:19.939Z,24.40
2017-08-23T10:32:47.540Z,24.30
2017-08-23T10:35:15.211Z,24.10
2017-08-23T10:37:42.852Z,24.00
2017-08-23T10:40:10.471Z,23.80
2017-08-23T10:42:38.130Z,23.50
2017-08-23T10:45:05.749Z,23.40
2017-08-23T10:47:33.380Z,23.20
2017-08-23T10:50:01.157Z,23.10
2017-08-23T10:52:28.783Z,23.20
2017-08-23T10:54:56.428Z,23.20
2017-08-23T10:57:24.186Z,23.20
2017-08-23T10:59:51.818Z,23.20
2017-08-23T11:02:19.449Z,23.10
2017-08-23T11:04:47.159Z,23.10
2017-08-23T11:07:14.784Z,23.20
2017-08-23T11:09:42.387Z,23.20
2017-08-23T11:12:10.057Z,23.20
2017-08-23T11:14:37.669Z,23.10
2017-08-23T11:17:05.282Z,23.20
2017-08-23T11:19:33.045Z,23.10
2017-08-23T11:22:00.652Z,22.90
2017-08-23T11:24:28.332Z,22.90
2017-08-23T11:26:56.121Z,23.00
2017-08-23T11:29:23.749Z,23.00
2017-08-23T11:31:51.374Z,23.00
2017-08-23T11:34:19.058Z,23.00
2017-08-23T11:36:47.580Z,22.90
2017-08-23T11:39:15.233Z,23.00
2017-08-23T11:41:43.008Z,23.10
2017-08-23T11:44:10.631Z,23.10
2017-08-23T11:46:38.298Z,23.20
2017-08-23T11:49:05.959Z,23.20
2017-08-23T11:51:33.563Z,23.30
2017-08-23T11:54:01.193Z,23.30
2017-08-23T11:56:28.880Z,23.30
2017-08-23T11:58:56.532Z,23.20
2017-08-23T12:01:24.199Z,23.10
2017-08-23T12:03:52.044Z,23.00
2017-08-23T12:06:19.631Z,23.00
2017-08-23T12:08:47.255Z,23.10
2017-08-23T12:11:14.906Z,23.10
2017-08-23T12:13:42.573Z,23.10
2017-08-23T12:16:10.171Z,23.20
2017-08-23T12:18:37.851Z,23.20
2017-08-23T12:21:05.458Z,23.30
2017-08-23T12:23:33.088Z,23.30
2017-08-23T12:26:01.144Z,23.40
2017-08-23T12:28:28.850Z,23.40
2017-08-23T12:30:56.470Z,23.40
2017-08-23T12:33:24.265Z,23.30
2017-08-23T12:35:52.586Z,23.40
2017-08-23T12:38:20.219Z,23.40
2017-08-23T12:40:47.966Z,23.50
2017-08-23T12:43:15.563Z,23.40
2017-08-23T12:45:43.180Z,23.40
2017-08-23T12:48:10.844Z,23.50
2017-08-23T12:50:38.510Z,23.50
2017-08-23T12:53:06.152Z,23.50
2017-08-23T12:55:33.924Z,23.50
2017-08-23T12:58:01.545Z,23.50
2017-08-23T13:00:29.181Z,23.50
2017-08-23T13:02:56.868Z,23.60
2017-08-23T13:05:24.512Z,23.60
2017-08-23T13:07:52.173Z,23.60
2017-08-23T13:10:19.853Z,23.60
2017-08-23T13:12:47.470Z,23.50
2017-08-23T13:15:15.115Z,23.40
2017-08-23T13:17:42.795Z,23.50
2017-08-23T13:20:10.421Z,23.60
2017-08-23T13:22:38.044Z,23.70
2017-08-23T13:25:05.757Z,23.70
2017-08-23T13:27:33.376Z,23.80
2017-08-23T13:30:01.003Z,23.80
2017-08-23T13:32:28.694Z,23.80
2017-08-23T13:34:56.323Z,23.90
2017-08-23T13:37:23.928Z,23.90
2017-08-23T13:39:51.638Z,24.00
2017-08-23T13:42:19.263Z,24.00
2017-08-23T13:44:46.870Z,24.00
2017-08-23T13:47:15.340Z,24.00
2017-08-23T13:49:43.009Z,23.90
2017-08-23T13:52:10.627Z,23.90
2017-08-23T13:54:38.292Z,24.00
2017-08-23T13:57:05.924Z,24.10
2017-08-23T13:59:33.564Z,24.20
2017-08-23T14:02:01.253Z,24.20
2017-08-23T14:04:28.861Z,24.10
2017-08-23T14:06:56.483Z,24.10
2017-08-23T14:09:24.155Z,24.10
2017-08-23T14:11:51.791Z,24.10
2017-08-23T14:14:19.395Z,24.10
2017-08-23T14:16:47.055Z,24.10
2017-08-23T14:19:14.662Z,24.10
2017-08-23T14:21:42.272Z,24.10
2017-08-23T14:24:09.943Z,24.10
2017-08-23T14:26:37.550Z,24.00
2017-08-23T14:29:05.151Z,23.80
2017-08-23T14:31:32.866Z,23.80
2017-08-23T14:34:00.479Z,23.70
2017-08-23T14:36:28.104Z,23.80
2017-08-23T14:38:55.765Z,23.80
2017-08-23T14:41:23.373Z,23.90
2017-08-23T14:43:50.995Z,23.80
2017-08-23T14:46:18.655Z,23.80
2017-08-23T14:48:46.255Z,23.80
2017-08-23T14:51:13.860Z,23.70
2017-08-23T14:53:41.534Z,23.70
2017-08-23T14:56:09.144Z,23.70
2017-08-23T14:58:36.760Z,23.70
2017-08-23T15:01:04.547Z,23.60
2017-08-23T15:03:32.154Z,23.70
2017-08-23T15:05:59.763Z,23.70
2017-08-23T15:08:27.434Z,23.80
2017-08-23T15:10:55.047Z,23.80
2017-08-23T15:13:22.652Z,23.90
2017-08-23T15:15:50.315Z,23.80
2017-08-23T15:18:17.944Z,23.80
2017-08-23T15:20:45.632Z,23.70
2017-08-23T15:23:13.276Z,23.70
2017-08-23T15:25:40.916Z,23.70
2017-08-23T15:28:08.551Z,23.70
2017-08-23T15:30:36.162Z,23.70
2017-08-23T15:33:03.848Z,23.70
2017-08-23T15:35:31.781Z,23.70
2017-08-23T15:37:59.483Z,23.60
2017-08-23T15:40:27.379Z,23.50
2017-08-23T15:42:57.084Z,23.40
2017-08-23T15:45:25.403Z,23.40
2017-08-23T15:47:54.262Z,23.40
2017-08-23T15:50:22.225Z,23.40
2017-08-23T15:52:52.491Z,23.40
2017-08-23T15:55:20.170Z,23.40
2017-08-23T15:57:47.774Z,23.40
2017-08-23T16:00:15.391Z,23.40
2017-08-23T16:02:43.043Z,23.30
2017-08-23T16:05:10.659Z,23.30
2017-08-23T16:07:38.278Z,23.30
2017-08-23T16:10:06.041Z,23.20
2017-08-23T16:12:33.657Z,23.20
2017-08-23T16:15:01.267Z,23.20
2017-08-23T16:17:28.938Z,23.10
2017-08-23T16:19:56.552Z,23.10
2017-08-23T16:22:24.167Z,23.10
2017-08-23T16:24:51.928Z,23.00
2017-08-23T16:27:19.550Z,23.00
2017-08-23T16:29:47.168Z,23.00
2017-08-23T16:32:14.827Z,22.90
2017-08-23T16:34:42.443Z,22.90
2017-08-23T16:37:10.065Z,22.80
2017-08-23T16:39:37.730Z,22.80
2017-08-23T16:42:05.351Z,22.80
2017-08-23T16:44:32.972Z,22.80
2017-08-23T16:47:00.777Z,22.70
2017-08-23T16:49:28.956Z,22.50
2017-08-23T16:51:57.032Z,22.50
2017-08-23T16:54:25.446Z,22.50
2017-08-23T16:56:53.597Z,22.50
2017-08-23T16:59:21.756Z,22.50
2017-08-23T17:01:49.867Z,22.40
2017-08-23T17:04:17.568Z,22.30
2017-08-23T17:06:45.630Z,22.30
2017-08-23T17:09:13.667Z,22.20
2017-08-23T17:11:41.614Z,22.20
2017-08-23T17:14:09.343Z,22.10
2017-08-23T17:16:37.028Z,22.10
2017-08-23T17:19:04.649Z,22.10
2017-08-23T17:21:32.285Z,22.10
2017-08-23T17:23:59.994Z,22.00
2017-08-23T17:26:27.634Z,21.90
2017-08-23T17:28:55.252Z,21.80
2017-08-23T17:31:22.935Z,21.70
2017-08-23T17:33:50.551Z,21.60
2017-08-23T17:36:18.160Z,21.50
2017-08-23T17:38:45.854Z,21.40
2017-08-23T17:41:13.452Z,21.30
2017-08-23T17:43:41.063Z,21.20
2017-08-23T17:46:08.734Z,21.10
2017-08-23T17:48:36.355Z,21.00
2017-08-23T17:51:03.984Z,20.90
2017-08-23T17:53:31.743Z,20.80
2017-08-23T17:55:59.392Z,20.70
2017-08-23T17:58:26.994Z,20.60
2017-08-23T18:00:54.759Z,20.50
2017-08-23T18:03:22.378Z,20.40
2017-08-23T18:05:49.981Z,20.30
2017-08-23T18:08:17.632Z,20.10
2017-08-23T18:10:45.244Z,20.00
2017-08-23T18:13:12.864Z,19.90
2017-08-23T18:15:40.526Z,19.80
2017-08-23T18:18:08.148Z,19.60
2017-08-23T18:20:35.798Z,19.60
2017-08-23T18:23:03.864Z,19.50
2017-08-23T18:25:31.515Z,19.50
2017-08-23T18:27:59.226Z,19.40
2017-08-23T18:30:26.956Z,19.30
2017-08-23T18:32:54.620Z,19.10
2017-08-23T18:35:22.409Z,19.10
2017-08-23T18:37:50.503Z,19.00
2017-08-23T18:40:18.175Z,18.80
2017-08-23T18:42:45.912Z,18.80
2017-08-23T18:45:13.801Z,18.70
2017-08-23T18:47:41.922Z,18.60
2017-08-23T18:50:09.840Z,18.50
2017-08-23T18:52:37.754Z,18.40
2017-08-23T18:55:05.595Z,18.40
2017-08-23T18:57:33.346Z,18.40
2017-08-23T19:00:01.230Z,18.30
2017-08-23T19:02:29.472Z,18.20
2017-08-23T19:04:57.433Z,18.20
2017-08-23T19:07:25.524Z,18.10
2017-08-23T19:09:53.409Z,18.00
2017-08-23T19:12:21.297Z,18.00
2017-08-23T19:14:49.209Z,17.90
2017-08-23T19:17:17.044Z,17.80
2017-08-23T19:19:44.777Z,17.70
2017-08-23T19:22:12.526Z,17.60
2017-08-23T19:24:40.194Z,17.60
2017-08-23T19:27:07.816Z,17.50
2017-08-23T19:29:35.512Z,17.40
2017-08-23T19:32:03.203Z,17.40
2017-08-23T19:34:30.946Z,17.40
2017-08-23T19:36:59.027Z,17.40
2017-08-23T19:39:26.748Z,17.40
2017-08-23T19:41:54.552Z,17.40
2017-08-23T19:44:22.493Z,17.30
2017-08-23T19:46:50.248Z,17.30
2017-08-23T19:49:18.052Z,17.20
2017-08-23T19:51:46.028Z,17.20
2017-08-23T19:54:13.849Z,17.10
2017-08-23T19:56:41.719Z,17.10
2017-08-23T19:59:09.572Z,17.00
2017-08-23T20:01:37.414Z,17.00
2017-08-23T20:04:05.211Z,17.00
2017-08-23T20:06:33.109Z,17.00
2017-08-23T20:09:00.859Z,17.00
2017-08-23T20:11:28.557Z,16.90
2017-08-23T20:13:56.391Z,17.00
2017-08-23T20:16:24.222Z,17.00
2017-08-23T20:18:51.923Z,17.00
2017-08-23T20:21:19.697Z,16.90
2017-08-23T20:23:47.404Z,16.90
2017-08-23T20:26:15.086Z,16.90
2017-08-23T20:28:42.889Z,16.90
2017-08-23T20:31:10.617Z,16.80
2017-08-23T20:33:38.327Z,16.80
2017-08-23T20:36:06.064Z,16.80
2017-08-23T20:38:33.794Z,16.80
2017-08-23T20:41:01.616Z,16.70
2017-08-23T20:43:29.340Z,16.70
2017-08-23T20:45:57.003Z,16.70
2017-08-23T20:48:24.648Z,16.80
2017-08-23T20:50:52.368Z,16.70
2017-08-23T20:53:20.294Z,16.80
2017-08-23T20:55:48.100Z,16.80
2017-08-23T20:58:15.883Z,16.80
2017-08-23T21:00:43.669Z,16.80
2017-08-23T21:03:11.383Z,16.80
2017-08-23T21:05:39.536Z,16.80
2017-08-23T21:08:07.609Z,16.80
2017-08-23T21:10:35.672Z,16.80
2017-08-23T21:13:03.606Z,16.90
2017-08-23T21:15:31.546Z,16.90
2017-08-23T21:17:59.551Z,16.90
2017-08-23T21:20:27.489Z,16.80
2017-08-23T21:22:55.605Z,16.80
2017-08-23T21:25:23.708Z,16.80
2017-08-23T21:27:51.547Z,16.70
2017-08-23T21:30:19.246Z,16.60
2017-08-23T21:32:46.986Z,16.50
2017-08-23T21:35:14.940Z,16.50
2017-08-23T21:37:42.693Z,16.50
2017-08-23T21:40:10.550Z,16.40
2017-08-23T21:42:38.525Z,16.40
2017-08-23T21:45:06.951Z,16.30
2017-08-23T21:47:34.710Z,16.20
2017-08-23T21:50:02.601Z,16.20
2017-08-23T21:52:30.529Z,16.20
2017-08-23T21:54:58.160Z,16.20
2017-08-23T21:57:26.028Z,16.10
2017-08-23T21:59:53.664Z,16.10
2017-08-23T22:02:21.299Z,16.00
2017-08-23T22:04:48.970Z,16.00
2017-08-23T22:07:16.603Z,15.90
2017-08-23T22:09:44.219Z,15.90
2017-08-23T22:12:11.878Z,15.80
2017-08-23T22:14:39.498Z,15.70
2017-08-23T22:17:07.164Z,15.70
2017-08-23T22:19:34.935Z,15.60
2017-08-23T22:22:02.580Z,15.60
2017-08-23T22:24:30.209Z,15.60
2017-08-23T22:26:57.964Z,15.60
2017-08-23T22:29:25.587Z,15.50
2017-08-23T22:31:53.210Z,15.50
2017-08-23T22:34:20.918Z,15.40
2017-08-23T22:36:48.537Z,15.40
2017-08-23T22:39:16.184Z,15.40
2017-08-23T22:41:43.860Z,15.40
2017-08-23T22:44:11.499Z,15.30
2017-08-23T22:46:39.128Z,15.30
2017-08-23T22:49:06.791Z,15.20
2017-08-23T22:51:34.423Z,15.20
2017-08-23T22:54:02.057Z,15.20
2017-08-23T22:56:29.804Z,15.10
2017-08-23T22:58:57.442Z,15.10
2017-08-23T23:01:25.059Z,15.10
2017-08-23T23:03:52.755Z,15.10
2017-08-23T23:06:20.376Z,15.00
2017-08-23T23:08:47.982Z,15.00
2017-08-23T23:11:15.663Z,15.00
2017-08-23T23:13:43.299Z,15.00
2017-08-23T23:16:10.945Z,15.00
2017-08-23T23:18:38.604Z,15.00
2017-08-23T23:21:06.219Z,15.00
2017-08-23T23:23:33.873Z,14.90
2017-08-23T23:26:01.546Z,15.00
2017-08-23T23:28:29.172Z,15.00
2017-08-23T23:30:56.804Z,14.90
2017-08-23T23:33:24.592Z,14.90
2017-08-23T23:35:52.204Z,15.00
2017-08-23T23:38:19.834Z,14.90
2017-08-23T23:40:47.524Z,14.90
2017-08-23T23:43:15.152Z,14.90
2017-08-23T23:45:42.784Z,14.90
2017-08-23T23:48:10.493Z,14.90
2017-08-23T23:50:38.126Z,14.90
2017-08-23T23:53:05.752Z,14.90
2017-08-23T23:55:33.453Z,14.90
2017-08-23T23:58:01.107Z,15.00
